Time;durP1;ratioP1;P1;durP2;ratioP2;P2;SDS_P1;SDS_P2;PMS_P1;PMS_P2;Temp;Humidity;BMP_temperature;BMP_pressure;BME280_temperature;BME280_humidity;BME280_pressure;Samples;Min_cycle;Max_cycle;Signal;HPM_P1;HPM_P2
2023/07/15 00:00:42;;;;;;;10.27;9.52;;;;;;;;;;5045106;28;20029;-77
2023/07/15 00:03:09;;;;;;;10.98;10.18;;;;;;;;;;5047443;28;20072;-78
2023/07/15 00:05:35;;;;;;;11.40;10.57;;;;;;;;;;5045883;28;20044;-78
2023/07/15 00:08:02;;;;;;;11.70;10.75;;;;;;;;;;5047072;28;20025;-78
2023/07/15 00:10:29;;;;;;;11.60;10.80;;;;;;;;;;5044770;28;20335;-78
2023/07/15 00:12:54;;;;;;;11.38;10.48;;;;;;;;;;5046120;28;20044;-77
2023/07/15 00:15:21;;;;;;;12.18;11.18;;;;;;;;;;5045610;28;20037;-78
2023/07/15 00:17:47;;;;;;;11.25;10.55;;;;;;;;;;5044626;28;20063;-77
2023/07/15 00:20:14;;;;;;;11.18;10.18;;;;;;;;;;5045983;28;20123;-77
2023/07/15 00:22:43;;;;;;;11.07;10.38;;;;;;;;;;5045946;28;20043;-78
2023/07/15 00:25:15;;;;;;;11.90;11.10;;;;;;;;;;5045807;28;20033;-77
2023/07/15 00:27:42;;;;;;;11.85;10.80;;;;;;;;;;5044210;28;20040;-78
2023/07/15 00:30:10;;;;;;;11.95;10.80;;;;;;;;;;5049417;28;20060;-77
2023/07/15 00:32:35;;;;;;;11.40;10.38;;;;;;;;;;5050892;28;20033;-78
2023/07/15 00:35:01;;;;;;;11.60;10.75;;;;;;;;;;5031616;28;20071;-77
2023/07/15 00:37:28;;;;;;;11.10;10.20;;;;;;;;;;5049654;28;20036;-77
2023/07/15 00:39:55;;;;;;;10.80;10.10;;;;;;;;;;5049277;28;20041;-77
2023/07/15 00:43:00;;;;;;;11.40;10.60;;;;;;;;;;5046939;28;20059;-77
2023/07/15 00:45:26;;;;;;;11.63;10.73;;;;;;;;;;5047793;28;20087;-77
2023/07/15 00:48:06;;;;;;;11.40;10.50;;;;;;;;;;5048959;28;20089;-77
2023/07/15 00:50:32;;;;;;;12.00;11.20;;;;;;;;;;5046712;28;20044;-78
2023/07/15 00:52:58;;;;;;;11.80;11.00;;;;;;;;;;5049151;28;20086;-78
2023/07/15 00:55:24;;;;;;;11.90;10.60;;;;;;;;;;5049136;28;20058;-78
2023/07/15 00:57:50;;;;;;;11.13;10.23;;;;;;;;;;5049717;28;20135;-78
2023/07/15 01:00:18;;;;;;;10.35;9.65;;;;;;;;;;5047273;28;20058;-77
2023/07/15 01:02:45;;;;;;;;;;;;;;;;;;5050630;28;20028;-77
2023/07/15 01:05:11;;;;;;;11.32;10.52;;;;;;;;;;5050507;28;19916;-78
2023/07/15 01:07:37;;;;;;;11.70;10.82;;;;;;;;;;5048385;28;20056;-77
2023/07/15 01:10:03;;;;;;;11.30;10.32;;;;;;;;;;5048471;28;20041;-77
2023/07/15 01:12:29;;;;;;;11.25;10.35;;;;;;;;;;5031536;28;20040;-78
2023/07/15 01:14:56;;;;;;;11.45;10.65;;;;;;;;;;5048758;28;20455;-77
2023/07/15 01:17:22;;;;;;;11.32;10.30;;;;;;;;;;5059043;28;20036;-77
2023/07/15 01:19:49;;;;;;;11.18;10.18;;;;;;;;;;5075273;28;20021;-77
2023/07/15 01:22:16;;;;;;;11.60;10.70;;;;;;;;;;5075217;28;20036;-77
2023/07/15 01:24:41;;;;;;;11.02;10.25;;;;;;;;;;5047809;28;20514;-77
2023/07/15 01:27:08;;;;;;;11.70;10.80;;;;;;;;;;5047343;28;20400;-77
2023/07/15 01:29:34;;;;;;;11.65;10.68;;;;;;;;;;5047157;28;20075;-77
2023/07/15 01:32:01;;;;;;;12.00;10.90;;;;;;;;;;5051717;28;20056;-77
2023/07/15 01:34:29;;;;;;;12.15;11.25;;;;;;;;;;5046163;28;20056;-77
2023/07/15 01:36:56;;;;;;;10.93;10.23;;;;;;;;;;5047012;28;20033;-77
2023/07/15 01:39:22;;;;;;;11.23;10.43;;;;;;;;;;5047189;28;20033;-77
2023/07/15 01:41:47;;;;;;;11.48;10.68;;;;;;;;;;5046857;28;20045;-77
2023/07/15 01:44:14;;;;;;;11.35;10.32;;;;;;;;;;5045638;28;20508;-77
2023/07/15 01:46:40;;;;;;;11.48;10.70;;;;;;;;;;5030333;28;20051;-77
2023/07/15 01:49:08;;;;;;;12.20;11.30;;;;;;;;;;5048198;28;20036;-77
2023/07/15 01:51:37;;;;;;;11.40;10.68;;;;;;;;;;5047130;28;20025;-77
2023/07/15 01:54:03;;;;;;;11.32;10.63;;;;;;;;;;5046731;28;20032;-78
2023/07/15 01:56:29;;;;;;;11.45;10.60;;;;;;;;;;5047346;28;20032;-78
2023/07/15 01:58:55;;;;;;;11.93;10.80;;;;;;;;;;5047369;28;20067;-77
2023/07/15 02:01:20;;;;;;;11.85;10.63;;;;;;;;;;5047208;28;20049;-77
2023/07/15 02:03:46;;;;;;;11.20;10.40;;;;;;;;;;5045601;28;20033;-78
2023/07/15 02:06:13;;;;;;;11.93;10.93;;;;;;;;;;5046547;28;20036;-77
2023/07/15 02:08:39;;;;;;;12.00;11.20;;;;;;;;;;5047233;28;20796;-77
2023/07/15 02:11:04;;;;;;;12.35;11.25;;;;;;;;;;5046574;28;20116;-77
2023/07/15 02:13:30;;;;;;;12.13;11.18;;;;;;;;;;5046211;28;20424;-76
2023/07/15 02:15:55;;;;;;;12.07;11.18;;;;;;;;;;5046212;28;20064;-77
2023/07/15 02:18:24;;;;;;;11.23;10.43;;;;;;;;;;5047277;28;20546;-77
2023/07/15 02:20:49;;;;;;;12.90;11.85;;;;;;;;;;5041127;28;20087;-77
2023/07/15 02:23:16;;;;;;;12.23;11.20;;;;;;;;;;5029502;28;20025;-77
2023/07/15 02:25:44;;;;;;;11.90;11.10;;;;;;;;;;5042659;28;20044;-77
2023/07/15 02:28:10;;;;;;;13.15;11.90;;;;;;;;;;5045808;28;20505;-78
2023/07/15 02:30:35;;;;;;;12.35;11.25;;;;;;;;;;5038389;28;20029;-78
2023/07/15 02:33:01;;;;;;;12.02;11.15;;;;;;;;;;5060842;28;20056;-77
2023/07/15 02:35:27;;;;;;;12.60;11.70;;;;;;;;;;5047583;28;20033;-77
2023/07/15 02:37:54;;;;;;;12.10;11.05;;;;;;;;;;5045897;28;20083;-78
2023/07/15 02:40:20;;;;;;;12.32;11.18;;;;;;;;;;5045910;28;20045;-77
2023/07/15 02:42:46;;;;;;;13.27;12.20;;;;;;;;;;5044353;28;20035;-78
2023/07/15 02:45:12;;;;;;;12.82;11.82;;;;;;;;;;5046726;28;20037;-77
2023/07/15 02:47:40;;;;;;;12.68;11.57;;;;;;;;;;5044981;28;20025;-77
2023/07/15 02:50:08;;;;;;;12.05;11.15;;;;;;;;;;5044102;28;20369;-77
2023/07/15 02:52:36;;;;;;;12.20;11.38;;;;;;;;;;5043058;28;20045;-77
2023/07/15 02:55:03;;;;;;;12.05;11.25;;;;;;;;;;5046400;28;20040;-77
2023/07/15 02:57:32;;;;;;;12.20;11.20;;;;;;;;;;5044812;28;20045;-77
2023/07/15 02:59:57;;;;;;;11.73;10.90;;;;;;;;;;5042576;28;20269;-77
2023/07/15 03:02:23;;;;;;;11.57;10.77;;;;;;;;;;5046035;28;20036;-77
2023/07/15 03:04:50;;;;;;;12.48;11.57;;;;;;;;;;5045431;28;20092;-77
2023/07/15 03:07:16;;;;;;;13.38;11.50;;;;;;;;;;5045643;28;20025;-78
2023/07/15 03:09:43;;;;;;;12.55;11.43;;;;;;;;;;5044013;28;20446;-78
2023/07/15 03:12:09;;;;;;;12.35;11.45;;;;;;;;;;5044988;28;20037;-77
2023/07/15 03:14:35;;;;;;;12.52;11.63;;;;;;;;;;5045054;28;20498;-78
2023/07/15 03:17:02;;;;;;;12.63;11.60;;;;;;;;;;5044551;28;20032;-77
2023/07/15 03:19:30;;;;;;;13.20;12.00;;;;;;;;;;5045767;28;20116;-75
2023/07/15 03:21:57;;;;;;;12.85;11.75;;;;;;;;;;5045903;28;20060;-75
2023/07/15 03:24:24;;;;;;;12.88;11.88;;;;;;;;;;5044499;28;20037;-75
2023/07/15 03:26:50;;;;;;;12.27;11.25;;;;;;;;;;5045851;28;20041;-75
2023/07/15 03:29:16;;;;;;;13.13;12.23;;;;;;;;;;5040940;28;20039;-75
2023/07/15 03:31:41;;;;;;;12.20;11.40;;;;;;;;;;5044397;28;20051;-75
2023/07/15 03:34:07;;;;;;;13.68;11.57;;;;;;;;;;5042149;28;20067;-75
2023/07/15 03:36:34;;;;;;;12.23;11.23;;;;;;;;;;5042234;28;20086;-75
2023/07/15 03:38:59;;;;;;;12.77;11.88;;;;;;;;;;5045357;28;20436;-75
2023/07/15 03:41:25;;;;;;;12.75;11.85;;;;;;;;;;5045012;28;20061;-75
2023/07/15 03:43:50;;;;;;;12.32;11.38;;;;;;;;;;5044042;28;20071;-75
2023/07/15 03:46:16;;;;;;;12.90;12.10;;;;;;;;;;5044171;28;20040;-75
2023/07/15 03:48:41;;;;;;;13.10;11.98;;;;;;;;;;5045288;28;20446;-75
2023/07/15 03:51:07;;;;;;;12.90;12.02;;;;;;;;;;5045312;28;20039;-75
2023/07/15 03:53:33;;;;;;;13.10;12.07;;;;;;;;;;5044044;28;20396;-75
2023/07/15 03:55:58;;;;;;;12.57;11.68;;;;;;;;;;5045847;28;20654;-75
2023/07/15 03:58:24;;;;;;;13.05;11.73;;;;;;;;;;5045476;28;20032;-75
2023/07/15 04:00:49;;;;;;;12.50;11.60;;;;;;;;;;5044225;28;20043;-75
2023/07/15 04:03:15;;;;;;;12.35;11.35;;;;;;;;;;5046237;28;20086;-75
2023/07/15 04:05:40;;;;;;;12.45;11.52;;;;;;;;;;5045303;28;20033;-75
2023/07/15 04:08:06;;;;;;;11.85;11.05;;;;;;;;;;5045494;28;20373;-75
2023/07/15 04:10:32;;;;;;;12.23;11.40;;;;;;;;;;5047488;28;20503;-75
2023/07/15 04:12:57;;;;;;;11.70;11.00;;;;;;;;;;5044948;28;20037;-75
2023/07/15 04:15:23;;;;;;;12.55;11.55;;;;;;;;;;5044973;28;20038;-75
2023/07/15 04:17:48;;;;;;;11.98;11.10;;;;;;;;;;5043506;28;20052;-75
2023/07/15 04:20:17;;;;;;;11.52;10.73;;;;;;;;;;5043729;28;20037;-72
2023/07/15 04:22:43;;;;;;;12.10;11.13;;;;;;;;;;5045025;28;20144;-70
2023/07/15 04:25:11;;;;;;;12.25;11.45;;;;;;;;;;5045120;28;20120;-74
2023/07/15 04:27:38;;;;;;;11.93;10.93;;;;;;;;;;5043844;28;20082;-74
2023/07/15 04:30:05;;;;;;;13.05;11.95;;;;;;;;;;5042438;28;20037;-74
2023/07/15 04:32:30;;;;;;;12.60;11.50;;;;;;;;;;5045249;28;20119;-74
2023/07/15 04:34:56;;;;;;;12.00;11.20;;;;;;;;;;5046438;28;20510;-74
2023/07/15 04:37:22;;;;;;;12.88;11.88;;;;;;;;;;5043556;28;20075;-74
2023/07/15 04:39:48;;;;;;;12.52;11.50;;;;;;;;;;5044613;28;20028;-74
2023/07/15 04:42:14;;;;;;;12.00;11.20;;;;;;;;;;5040136;28;20029;-74
2023/07/15 04:44:39;;;;;;;12.63;11.73;;;;;;;;;;5043179;28;20049;-74
2023/07/15 04:47:05;;;;;;;12.90;11.77;;;;;;;;;;5044953;28;20043;-74
2023/07/15 04:49:30;;;;;;;13.05;12.05;;;;;;;;;;5044754;28;20048;-74
2023/07/15 04:51:56;;;;;;;11.90;11.10;;;;;;;;;;5045891;28;20488;-74
2023/07/15 04:54:22;;;;;;;12.23;11.20;;;;;;;;;;5054615;28;20033;-74
2023/07/15 04:56:48;;;;;;;11.55;10.52;;;;;;;;;;5068586;28;20033;-75
2023/07/15 04:59:14;;;;;;;12.27;11.32;;;;;;;;;;5045417;28;20040;-75
2023/07/15 05:01:39;;;;;;;11.63;10.82;;;;;;;;;;5043127;28;20129;-74
2023/07/15 05:04:05;;;;;;;11.93;10.75;;;;;;;;;;5045032;28;20114;-74
2023/07/15 05:06:31;;;;;;;12.70;11.70;;;;;;;;;;5044884;28;20032;-74
2023/07/15 05:08:57;;;;;;;12.73;11.52;;;;;;;;;;5041272;28;20044;-74
2023/07/15 05:11:26;;;;;;;12.05;11.15;;;;;;;;;;5044902;28;20044;-75
2023/07/15 05:13:52;;;;;;;;;;;;;;;;;;5045870;28;20062;-75
2023/07/15 05:16:17;;;;;;;12.25;11.35;;;;;;;;;;5047119;28;19916;-75
2023/07/15 05:18:43;;;;;;;13.60;11.88;;;;;;;;;;5048284;28;20711;-75
2023/07/15 05:21:09;;;;;;;12.57;11.50;;;;;;;;;;5048807;28;20120;-75
2023/07/15 05:23:35;;;;;;;11.70;10.73;;;;;;;;;;5046001;28;20044;-75
2023/07/15 05:26:01;;;;;;;12.45;11.50;;;;;;;;;;5048135;28;20033;-75
2023/07/15 05:28:33;;;;;;;13.52;12.10;;;;;;;;;;5047744;28;20052;-75
2023/07/15 05:31:00;;;;;;;12.25;11.38;;;;;;;;;;5059687;28;20040;-74
2023/07/15 05:33:25;;;;;;;12.90;11.90;;;;;;;;;;5055360;28;20449;-75
2023/07/15 05:35:52;;;;;;;13.00;11.98;;;;;;;;;;5048912;28;21098;-73
2023/07/15 05:38:23;;;;;;;11.75;10.95;;;;;;;;;;5045905;28;20063;-76
2023/07/15 05:40:48;;;;;;;11.55;10.68;;;;;;;;;;5046903;28;20040;-76
2023/07/15 05:43:14;;;;;;;11.43;10.52;;;;;;;;;;5048077;28;20499;-76
2023/07/15 05:45:39;;;;;;;11.18;10.38;;;;;;;;;;5048429;28;20037;-76
2023/07/15 05:48:05;;;;;;;12.20;11.23;;;;;;;;;;5046572;28;20061;-76
2023/07/15 05:50:34;;;;;;;11.15;10.40;;;;;;;;;;5047721;28;20105;-76
2023/07/15 05:52:59;;;;;;;;;;;;;;;;;;5048416;28;20041;-76
2023/07/15 05:55:25;;;;;;;11.27;10.50;;;;;;;;;;5046512;28;19966;-76
2023/07/15 05:57:51;;;;;;;11.10;10.20;;;;;;;;;;5047684;28;20045;-76
2023/07/15 06:00:16;;;;;;;10.82;10.02;;;;;;;;;;5048174;28;20044;-76
2023/07/15 06:02:42;;;;;;;11.02;10.32;;;;;;;;;;5046604;28;20025;-76
2023/07/15 06:05:08;;;;;;;11.10;10.30;;;;;;;;;;5045159;28;20035;-76
2023/07/15 06:07:33;;;;;;;11.48;10.68;;;;;;;;;;5047613;28;20997;-76
2023/07/15 06:09:59;;;;;;;12.00;10.90;;;;;;;;;;5047242;28;20040;-76
2023/07/15 06:12:24;;;;;;;11.50;10.70;;;;;;;;;;5046002;28;20031;-76
2023/07/15 06:14:50;;;;;;;11.52;10.48;;;;;;;;;;5047540;28;20273;-76
2023/07/15 06:17:16;;;;;;;11.15;10.35;;;;;;;;;;5047279;28;20025;-76
2023/07/15 06:19:42;;;;;;;11.52;10.48;;;;;;;;;;5047290;28;20044;-76
2023/07/15 06:22:07;;;;;;;10.35;9.55;;;;;;;;;;5045625;28;20029;-76
2023/07/15 06:24:33;;;;;;;10.98;10.27;;;;;;;;;;5047423;28;20041;-76
2023/07/15 06:26:58;;;;;;;10.60;9.90;;;;;;;;;;5045743;28;20481;-76
2023/07/15 06:29:27;;;;;;;10.68;9.73;;;;;;;;;;5044277;28;20052;-75
2023/07/15 06:31:52;;;;;;;11.20;10.18;;;;;;;;;;5046878;28;20029;-76
2023/07/15 06:34:18;;;;;;;10.57;9.70;;;;;;;;;;5046784;28;20040;-76
2023/07/15 06:36:43;;;;;;;9.85;9.18;;;;;;;;;;5046309;28;20116;-75
2023/07/15 06:39:09;;;;;;;9.85;8.95;;;;;;;;;;5046803;28;20435;-76
2023/07/15 06:41:34;;;;;;;9.48;8.57;;;;;;;;;;5046714;28;20452;-76
2023/07/15 06:44:00;;;;;;;9.35;8.75;;;;;;;;;;5045450;28;20484;-76
2023/07/15 06:46:26;;;;;;;10.15;9.18;;;;;;;;;;5044562;28;20029;-75
2023/07/15 06:48:52;;;;;;;8.77;8.13;;;;;;;;;;5046639;28;20036;-76
2023/07/15 06:51:19;;;;;;;10.32;9.30;;;;;;;;;;5045099;28;20093;-76
2023/07/15 06:53:45;;;;;;;9.60;8.80;;;;;;;;;;5046631;28;20039;-76
2023/07/15 06:56:11;;;;;;;8.95;8.32;;;;;;;;;;5045588;28;20500;-76
2023/07/15 06:58:37;;;;;;;8.75;7.95;;;;;;;;;;5046239;28;20032;-76
2023/07/15 07:01:02;;;;;;;8.32;7.72;;;;;;;;;;5044964;28;20037;-76
2023/07/15 07:03:28;;;;;;;8.98;8.27;;;;;;;;;;5041710;28;20037;-76
2023/07/15 07:05:53;;;;;;;9.00;8.30;;;;;;;;;;5045385;28;20047;-76
2023/07/15 07:08:22;;;;;;;9.73;8.93;;;;;;;;;;5045538;28;20422;-76
2023/07/15 07:10:51;;;;;;;9.20;8.50;;;;;;;;;;5044074;28;20417;-76
2023/07/15 07:13:18;;;;;;;9.20;8.38;;;;;;;;;;5046020;28;20322;-76
2023/07/15 07:15:43;;;;;;;8.18;7.57;;;;;;;;;;5045921;28;20116;-76
2023/07/15 07:18:09;;;;;;;11.70;7.40;;;;;;;;;;5045930;28;20584;-76
2023/07/15 07:20:35;;;;;;;8.15;7.00;;;;;;;;;;5043743;28;20124;-76
2023/07/15 07:23:00;;;;;;;8.00;7.40;;;;;;;;;;5046218;28;20127;-76
2023/07/15 07:25:26;;;;;;;9.25;8.25;;;;;;;;;;5045483;28;20094;-76
2023/07/15 07:27:51;;;;;;;8.45;7.80;;;;;;;;;;5046013;28;20245;-75
2023/07/15 07:30:17;;;;;;;9.60;8.20;;;;;;;;;;5045627;28;20427;-76
2023/07/15 07:32:43;;;;;;;8.88;8.07;;;;;;;;;;5045818;28;20458;-76
2023/07/15 07:35:09;;;;;;;8.45;7.85;;;;;;;;;;5045942;28;20094;-76
2023/07/15 07:37:34;;;;;;;8.57;7.88;;;;;;;;;;5043608;28;20131;-76
2023/07/15 07:40:00;;;;;;;8.13;7.30;;;;;;;;;;5045500;28;20120;-76
2023/07/15 07:42:25;;;;;;;8.27;7.47;;;;;;;;;;5045788;28;20175;-76
2023/07/15 07:44:54;;;;;;;9.90;8.00;;;;;;;;;;5045946;28;20402;-76
2023/07/15 07:47:20;;;;;;;8.50;7.68;;;;;;;;;;5043040;28;20064;-76
2023/07/15 07:49:46;;;;;;;8.52;7.72;;;;;;;;;;5045141;28;20064;-76
2023/07/15 07:52:11;;;;;;;8.05;7.45;;;;;;;;;;5045616;28;20043;-77
2023/07/15 07:54:38;;;;;;;8.77;7.97;;;;;;;;;;5041477;28;20467;-76
2023/07/15 07:57:04;;;;;;;9.00;8.20;;;;;;;;;;5054843;28;20029;-76
2023/07/15 07:59:30;;;;;;;8.07;7.38;;;;;;;;;;5027460;28;20404;-76
2023/07/15 08:01:55;;;;;;;7.90;7.30;;;;;;;;;;5044296;28;20495;-76
2023/07/15 08:04:21;;;;;;;7.78;7.03;;;;;;;;;;5057020;28;20037;-76
2023/07/15 08:06:48;;;;;;;8.55;7.72;;;;;;;;;;5060889;28;20036;-75
2023/07/15 08:09:15;;;;;;;8.13;7.53;;;;;;;;;;5074989;28;20037;-76
2023/07/15 08:11:42;;;;;;;8.75;7.53;;;;;;;;;;5064286;28;20064;-76
2023/07/15 08:14:08;;;;;;;8.07;7.38;;;;;;;;;;5063132;28;20060;-76
2023/07/15 08:16:36;;;;;;;7.80;7.05;;;;;;;;;;5061355;28;20048;-76
2023/07/15 08:19:04;;;;;;;7.68;6.97;;;;;;;;;;5063870;28;20045;-76
2023/07/15 08:21:31;;;;;;;7.93;7.43;;;;;;;;;;5038459;28;20132;-76
2023/07/15 08:23:56;;;;;;;7.80;7.20;;;;;;;;;;5045540;28;20083;-76
2023/07/15 08:26:23;;;;;;;8.80;8.10;;;;;;;;;;5045992;28;20034;-76
2023/07/15 08:28:49;;;;;;;8.30;7.70;;;;;;;;;;5044917;28;20033;-76
2023/07/15 08:31:15;;;;;;;8.02;7.43;;;;;;;;;;5045255;28;20043;-76
2023/07/15 08:33:40;;;;;;;7.60;7.10;;;;;;;;;;5045642;28;20111;-76
2023/07/15 08:36:06;;;;;;;7.60;7.10;;;;;;;;;;5043781;28;20484;-76
2023/07/15 08:38:32;;;;;;;7.97;7.28;;;;;;;;;;5044902;28;20037;-76
2023/07/15 08:41:01;;;;;;;8.05;7.38;;;;;;;;;;5049410;28;20060;-76
2023/07/15 08:43:31;;;;;;;7.60;7.10;;;;;;;;;;5037701;28;20056;-77
2023/07/15 08:46:01;;;;;;;7.95;7.38;;;;;;;;;;5062890;28;20033;-77
2023/07/15 08:48:28;;;;;;;8.95;8.13;;;;;;;;;;5054810;28;20033;-76
2023/07/15 08:51:00;;;;;;;9.15;8.38;;;;;;;;;;5049513;28;20033;-76
2023/07/15 08:53:27;;;;;;;8.27;7.57;;;;;;;;;;5047035;28;20037;-76
2023/07/15 08:55:56;;;;;;;8.17;7.57;;;;;;;;;;5049461;28;20035;-76
2023/07/15 08:58:23;;;;;;;8.57;7.25;;;;;;;;;;5048994;28;20071;-76
2023/07/15 09:00:52;;;;;;;7.97;7.47;;;;;;;;;;5047939;28;20429;-76
2023/07/15 09:03:19;;;;;;;8.02;7.28;;;;;;;;;;5050400;28;20028;-76
2023/07/15 09:05:45;;;;;;;8.30;7.60;;;;;;;;;;5042310;28;20068;-76
2023/07/15 09:08:13;;;;;;;8.15;7.53;;;;;;;;;;5041986;28;20492;-77
2023/07/15 09:10:52;;;;;;;8.25;7.60;;;;;;;;;;5048844;28;20028;-77
2023/07/15 09:13:28;;;;;;;8.45;7.75;;;;;;;;;;5048518;28;20043;-76
2023/07/15 09:15:56;;;;;;;8.32;7.50;;;;;;;;;;5047345;28;20047;-76
2023/07/15 09:18:22;;;;;;;7.53;7.03;;;;;;;;;;5050025;28;20561;-76
2023/07/15 09:20:48;;;;;;;7.35;6.40;;;;;;;;;;5049466;28;20024;-76
2023/07/15 09:23:15;;;;;;;7.28;6.68;;;;;;;;;;5047540;28;20484;-76
2023/07/15 09:25:52;;;;;;;7.15;6.50;;;;;;;;;;5046665;28;20615;-76
2023/07/15 09:28:19;;;;;;;7.72;7.10;;;;;;;;;;5046948;28;20025;-76
2023/07/15 09:30:45;;;;;;;7.07;6.55;;;;;;;;;;5048805;28;20556;-77
2023/07/15 09:33:32;;;;;;;7.60;7.10;;;;;;;;;;5045459;28;20055;-77
2023/07/15 09:35:59;;;;;;;7.10;6.60;;;;;;;;;;5044312;28;20553;-77
2023/07/15 09:38:33;;;;;;;7.30;6.80;;;;;;;;;;5047761;28;20037;-77
2023/07/15 09:41:02;;;;;;;7.35;6.80;;;;;;;;;;5046457;28;20052;-77
2023/07/15 09:43:51;;;;;;;7.82;7.30;;;;;;;;;;5047895;28;20045;-76
2023/07/15 09:46:19;;;;;;;7.40;6.90;;;;;;;;;;5044700;28;20049;-77
2023/07/15 09:48:47;;;;;;;7.82;7.30;;;;;;;;;;5046450;28;20032;-77
2023/07/15 09:51:15;;;;;;;7.23;6.80;;;;;;;;;;5046043;28;20037;-77
2023/07/15 09:53:46;;;;;;;7.18;6.47;;;;;;;;;;5030293;28;20044;-77
2023/07/15 09:56:12;;;;;;;7.13;6.70;;;;;;;;;;5047542;28;20539;-77
2023/07/15 09:58:42;;;;;;;10.48;7.03;;;;;;;;;;5046003;28;20037;-77
2023/07/15 10:01:33;;;;;;;7.25;6.75;;;;;;;;;;5047359;28;20392;-77
2023/07/15 10:04:10;;;;;;;7.47;6.93;;;;;;;;;;5047466;28;20048;-77
2023/07/15 10:06:35;;;;;;;7.25;6.78;;;;;;;;;;5046427;28;20041;-77
2023/07/15 10:09:05;;;;;;;8.10;6.53;;;;;;;;;;5050567;28;20021;-78
2023/07/15 10:11:33;;;;;;;7.38;6.72;;;;;;;;;;5035893;28;20308;-77
2023/07/15 10:14:00;;;;;;;7.35;6.85;;;;;;;;;;5046003;28;20033;-77
2023/07/15 10:16:26;;;;;;;7.32;6.72;;;;;;;;;;5045965;28;20037;-77
2023/07/15 10:18:55;;;;;;;7.07;6.57;;;;;;;;;;5045956;28;20508;-78
2023/07/15 10:21:21;;;;;;;7.30;6.80;;;;;;;;;;5047348;28;20032;-77
2023/07/15 10:23:47;;;;;;;6.88;6.20;;;;;;;;;;5047566;28;20477;-77
2023/07/15 10:26:19;;;;;;;8.13;7.10;;;;;;;;;;5048380;28;20138;-78
2023/07/15 10:28:51;;;;;;;7.13;6.72;;;;;;;;;;5044410;28;20044;-77
2023/07/15 10:31:23;;;;;;;7.20;6.70;;;;;;;;;;5047920;28;20033;-77
2023/07/15 10:33:57;;;;;;;7.35;6.78;;;;;;;;;;5046518;28;20063;-77
2023/07/15 10:36:44;;;;;;;6.82;6.32;;;;;;;;;;5047959;28;20055;-77
2023/07/15 10:39:11;;;;;;;7.03;6.40;;;;;;;;;;5047648;28;20071;-77
2023/07/15 10:41:41;;;;;;;7.47;6.88;;;;;;;;;;5045842;28;20048;-77
2023/07/15 10:44:22;;;;;;;6.45;5.95;;;;;;;;;;5049171;28;20120;-77
2023/07/15 10:46:58;;;;;;;7.70;7.00;;;;;;;;;;5048338;28;20029;-77
2023/07/15 10:49:23;;;;;;;7.50;6.90;;;;;;;;;;5044970;28;20029;-77
2023/07/15 10:51:52;;;;;;;7.70;7.20;;;;;;;;;;5045549;28;20037;-78
2023/07/15 10:54:29;;;;;;;7.80;7.30;;;;;;;;;;5054341;28;20063;-78
2023/07/15 10:56:54;;;;;;;8.57;7.97;;;;;;;;;;5072765;28;20032;-77
2023/07/15 10:59:31;;;;;;;8.18;7.47;;;;;;;;;;5071392;28;20025;-77
2023/07/15 11:01:59;;;;;;;8.32;7.65;;;;;;;;;;5047904;28;20075;-78
2023/07/15 11:04:24;;;;;;;8.90;8.10;;;;;;;;;;5047423;28;20439;-78
2023/07/15 11:06:50;;;;;;;8.77;8.18;;;;;;;;;;5049305;28;20291;-77
2023/07/15 11:09:18;;;;;;;8.00;7.30;;;;;;;;;;5049573;28;20040;-77
2023/07/15 11:11:44;;;;;;;7.93;7.32;;;;;;;;;;5031188;28;20132;-77
2023/07/15 11:14:26;;;;;;;8.30;7.75;;;;;;;;;;5046717;28;20029;-78
2023/07/15 11:16:57;;;;;;;8.27;7.68;;;;;;;;;;5045420;28;20021;-78
2023/07/15 11:19:26;;;;;;;8.10;7.60;;;;;;;;;;5044602;28;20049;-78
2023/07/15 11:21:52;;;;;;;8.57;7.88;;;;;;;;;;5046013;28;20036;-77
2023/07/15 11:24:18;;;;;;;8.20;7.70;;;;;;;;;;5045508;28;20095;-77
2023/07/15 11:26:44;;;;;;;8.63;8.07;;;;;;;;;;5045884;28;20388;-77
2023/07/15 11:29:14;;;;;;;9.25;8.45;;;;;;;;;;5044396;28;20032;-78
2023/07/15 11:31:42;;;;;;;7.80;7.22;;;;;;;;;;5047485;28;20044;-78
2023/07/15 11:34:09;;;;;;;8.02;7.43;;;;;;;;;;5046847;28;20098;-77
2023/07/15 11:36:37;;;;;;;8.40;7.80;;;;;;;;;;5044395;28;20039;-77
2023/07/15 11:39:04;;;;;;;8.05;7.45;;;;;;;;;;5046171;28;20459;-78
2023/07/15 11:41:36;;;;;;;7.28;6.78;;;;;;;;;;5046240;28;20123;-77
2023/07/15 11:44:12;;;;;;;8.70;8.00;;;;;;;;;;5045582;28;20124;-77
2023/07/15 11:46:38;;;;;;;8.32;7.72;;;;;;;;;;5061862;28;20089;-78
2023/07/15 11:49:05;;;;;;;8.25;7.55;;;;;;;;;;5044497;28;20053;-78
2023/07/15 11:51:33;;;;;;;8.20;7.40;;;;;;;;;;5046611;28;20033;-78
2023/07/15 11:53:59;;;;;;;8.98;7.57;;;;;;;;;;5044559;28;20029;-77
2023/07/15 11:56:39;;;;;;;8.40;7.88;;;;;;;;;;5044842;28;20032;-77
2023/07/15 11:59:24;;;;;;;9.07;8.20;;;;;;;;;;5046596;28;20481;-78
2023/07/15 12:01:50;;;;;;;7.78;7.20;;;;;;;;;;5045678;28;20055;-78
2023/07/15 12:04:17;;;;;;;8.10;7.50;;;;;;;;;;5044005;28;20397;-76
2023/07/15 12:06:52;;;;;;;8.07;7.57;;;;;;;;;;5043971;28;20033;-75
2023/07/15 12:09:19;;;;;;;8.57;8.00;;;;;;;;;;5044721;28;20167;-76
2023/07/15 12:11:45;;;;;;;8.60;8.00;;;;;;;;;;5043714;28;20504;-75
2023/07/15 12:14:13;;;;;;;8.80;8.10;;;;;;;;;;5045074;28;20079;-76
2023/07/15 12:16:40;;;;;;;8.15;7.53;;;;;;;;;;5045127;28;20037;-75
2023/07/15 12:19:09;;;;;;;8.43;7.57;;;;;;;;;;5044965;28;20112;-75
2023/07/15 12:21:34;;;;;;;8.05;7.55;;;;;;;;;;5043529;28;20094;-76
2023/07/15 12:24:00;;;;;;;8.63;8.07;;;;;;;;;;5048394;28;20131;-77
2023/07/15 12:26:25;;;;;;;8.93;8.32;;;;;;;;;;5047972;28;20046;-78
2023/07/15 12:28:51;;;;;;;8.82;8.20;;;;;;;;;;5049521;28;20044;-77
2023/07/15 12:31:17;;;;;;;8.80;8.30;;;;;;;;;;5047103;28;20033;-77
2023/07/15 12:33:44;;;;;;;9.30;8.50;;;;;;;;;;5049428;28;20622;-77
2023/07/15 12:36:11;;;;;;;8.48;7.80;;;;;;;;;;5049979;28;20064;-77
2023/07/15 12:38:37;;;;;;;9.15;8.45;;;;;;;;;;5047444;28;20073;-78
2023/07/15 12:41:04;;;;;;;8.27;7.78;;;;;;;;;;5048195;28;20047;-77
2023/07/15 12:43:31;;;;;;;8.73;8.13;;;;;;;;;;5048962;28;20036;-77
2023/07/15 12:45:57;;;;;;;9.10;8.38;;;;;;;;;;5048929;28;20523;-77
2023/07/15 12:48:22;;;;;;;8.48;7.95;;;;;;;;;;5047231;28;20570;-77
2023/07/15 12:50:48;;;;;;;9.15;8.60;;;;;;;;;;5046326;28;20032;-78
2023/07/15 12:53:14;;;;;;;9.02;8.48;;;;;;;;;;5049151;28;20029;-77
2023/07/15 12:55:40;;;;;;;9.02;8.52;;;;;;;;;;5049325;28;20068;-78
2023/07/15 12:58:05;;;;;;;8.63;8.00;;;;;;;;;;5047899;28;20542;-78
2023/07/15 13:00:31;;;;;;;9.48;8.68;;;;;;;;;;5047500;28;20393;-77
2023/07/15 13:02:56;;;;;;;9.30;8.48;;;;;;;;;;5049257;28;20115;-77
2023/07/15 13:05:22;;;;;;;8.90;8.40;;;;;;;;;;5046541;28;20032;-77
2023/07/15 13:07:47;;;;;;;9.25;8.50;;;;;;;;;;5048712;28;20037;-77
2023/07/15 13:10:13;;;;;;;9.40;8.50;;;;;;;;;;5049003;28;20041;-77
2023/07/15 13:12:39;;;;;;;9.73;8.70;;;;;;;;;;5048453;28;20457;-77
2023/07/15 13:15:05;;;;;;;9.35;8.70;;;;;;;;;;5045644;28;20041;-77
2023/07/15 13:17:30;;;;;;;8.57;8.00;;;;;;;;;;5047328;28;20037;-77
2023/07/15 13:19:56;;;;;;;8.45;7.95;;;;;;;;;;5046817;28;20041;-77
2023/07/15 13:22:21;;;;;;;8.85;8.20;;;;;;;;;;5048601;28;20059;-77
2023/07/15 13:24:50;;;;;;;8.85;8.35;;;;;;;;;;5045978;28;20107;-76
2023/07/15 13:27:16;;;;;;;9.30;8.60;;;;;;;;;;5048141;28;20029;-77
2023/07/15 13:29:42;;;;;;;9.77;8.95;;;;;;;;;;5047917;28;20124;-77
2023/07/15 13:32:08;;;;;;;8.85;8.25;;;;;;;;;;5046924;28;20112;-76
2023/07/15 13:34:34;;;;;;;8.90;8.40;;;;;;;;;;5047620;28;20943;-77
2023/07/15 13:36:59;;;;;;;8.85;8.30;;;;;;;;;;5053513;28;20376;-77
2023/07/15 13:39:35;;;;;;;8.90;8.30;;;;;;;;;;5052279;28;20399;-77
2023/07/15 13:42:06;;;;;;;8.60;7.80;;;;;;;;;;5048717;28;20475;-77
2023/07/15 13:44:33;;;;;;;8.85;8.30;;;;;;;;;;5048228;28;20041;-77
2023/07/15 13:46:58;;;;;;;9.20;8.50;;;;;;;;;;5062375;28;20051;-77
2023/07/15 13:49:26;;;;;;;8.80;8.07;;;;;;;;;;5074584;28;20045;-77
2023/07/15 13:51:51;;;;;;;10.07;9.27;;;;;;;;;;5072340;28;20033;-77
2023/07/15 13:54:17;;;;;;;9.43;8.73;;;;;;;;;;5048325;28;20520;-77
2023/07/15 13:56:42;;;;;;;9.30;8.80;;;;;;;;;;5049025;28;20036;-77
2023/07/15 13:59:08;;;;;;;8.80;8.30;;;;;;;;;;5044913;28;20493;-77
2023/07/15 14:01:34;;;;;;;8.60;8.07;;;;;;;;;;5047576;28;20040;-77
2023/07/15 14:04:00;;;;;;;9.13;8.32;;;;;;;;;;5047995;28;20032;-77
2023/07/15 14:06:25;;;;;;;9.52;8.93;;;;;;;;;;5046307;28;20458;-77
2023/07/15 14:08:51;;;;;;;9.80;9.10;;;;;;;;;;5046720;28;20466;-77
2023/07/15 14:11:17;;;;;;;9.20;8.52;;;;;;;;;;5060458;28;20036;-77
2023/07/15 14:13:42;;;;;;;9.52;8.98;;;;;;;;;;5048345;28;20053;-77
2023/07/15 14:16:08;;;;;;;9.52;8.80;;;;;;;;;;5047000;28;20032;-77
2023/07/15 14:18:33;;;;;;;9.15;8.35;;;;;;;;;;5044973;28;20052;-75
2023/07/15 14:20:59;;;;;;;9.00;8.40;;;;;;;;;;5047404;28;20488;-75
2023/07/15 14:23:25;;;;;;;8.35;7.80;;;;;;;;;;5046810;28;20520;-75
2023/07/15 14:25:50;;;;;;;8.88;8.05;;;;;;;;;;5047135;28;20096;-75
2023/07/15 14:28:16;;;;;;;8.68;8.07;;;;;;;;;;5044993;28;20484;-75
2023/07/15 14:30:41;;;;;;;8.68;8.07;;;;;;;;;;5046662;28;20484;-75
2023/07/15 14:33:08;;;;;;;8.65;8.13;;;;;;;;;;5046960;28;20400;-75